Terminal Aerodrome Forecast
Issued by NWS

Home | Current Version | Previous Version | Text Only | Print | Product List | Glossary On
Versions: 1 2 3 4 5 6 7 8 9 10 11 12 13 14 15 16 17 18
407
FTUS43 KIND 091120
TAFBMG
TAF
KBMG 091120Z 0912/1012 29008KT 6SM -SHSN BR OVC015
     FM091400 29014G20KT 6SM BR VCSH OVC015
      TEMPO 0918/0922 2SM -SHSN OVC008
     FM100000 29012G20KT P6SM SCT012 OVC020
      AMD LTD TO CLD VIS AND WIND TIL 091400=

USA.gov is the U.S. government's official web portal to all federal, state and local government web resources and services.